createdAt,value
2019-01-30T00:01:22.890Z,96693.36
2019-01-30T00:04:10.037Z,96693.02
2019-01-30T00:06:57.257Z,96688.84
2019-01-30T00:09:44.678Z,96689.98
2019-01-30T00:12:32.365Z,96685.25
2019-01-30T00:15:20.142Z,96681.88
2019-01-30T00:18:07.465Z,96677.16
2019-01-30T00:20:54.888Z,96667.72
2019-01-30T00:23:42.523Z,96665.78
2019-01-30T00:26:30.147Z,96670.93
2019-01-30T00:29:17.590Z,96666.84
2019-01-30T00:32:05.254Z,96666.05
2019-01-30T00:34:52.730Z,96667.67
2019-01-30T00:37:39.961Z,96665.14
2019-01-30T00:40:27.460Z,96658.48
2019-01-30T00:43:14.791Z,96655.31
2019-01-30T00:46:02.629Z,96660.39
2019-01-30T00:48:49.950Z,96656.52
2019-01-30T00:51:37.885Z,96642.78
2019-01-30T00:54:32.004Z,96650.85
2019-01-30T00:57:14.472Z,96636.45
2019-01-30T01:00:01.693Z,96636.59
2019-01-30T01:02:49.262Z,96631.10
2019-01-30T01:05:36.750Z,96629.95
2019-01-30T01:08:24.377Z,96631.73
2019-01-30T01:11:12.010Z,96630.09
2019-01-30T01:13:59.016Z,96631.06
2019-01-30T01:16:46.997Z,96622.95
2019-01-30T01:19:34.171Z,96621.97
2019-01-30T01:22:21.564Z,96627.52
2019-01-30T01:25:11.786Z,96615.86
2019-01-30T01:27:59.204Z,96615.23
2019-01-30T01:30:46.222Z,96613.77
2019-01-30T01:33:33.851Z,96604.06
2019-01-30T01:36:21.479Z,96610.84
2019-01-30T01:39:08.894Z,96599.03
2019-01-30T01:41:56.319Z,96599.50
2019-01-30T01:44:43.443Z,96585.91
2019-01-30T01:47:31.280Z,96583.01
2019-01-30T01:50:20.489Z,96572.33
2019-01-30T01:53:07.770Z,96564.08
2019-01-30T01:55:54.840Z,96555.98
2019-01-30T01:58:42.611Z,96548.66
2019-01-30T02:01:30.157Z,96543.19
2019-01-30T02:04:17.689Z,96537.17
2019-01-30T02:07:05.448Z,96530.86
2019-01-30T02:09:53.230Z,96529.06
2019-01-30T02:12:40.550Z,96524.38
2019-01-30T02:15:27.634Z,96522.45
2019-01-30T02:18:15.197Z,96527.58
2019-01-30T02:21:02.743Z,96523.34
2019-01-30T02:23:49.940Z,96511.84
2019-01-30T02:26:37.445Z,96518.06
2019-01-30T02:29:25.221Z,96509.98
2019-01-30T02:32:12.803Z,96506.67
2019-01-30T02:34:59.940Z,96502.14
2019-01-30T02:37:47.570Z,96503.20
2019-01-30T02:40:35.001Z,96486.38
2019-01-30T02:43:22.043Z,96486.63
2019-01-30T02:46:09.331Z,96487.45
2019-01-30T02:48:56.757Z,96491.28
2019-01-30T02:51:43.983Z,96478.56
2019-01-30T02:54:31.597Z,96476.48
2019-01-30T02:57:19.030Z,96476.45
2019-01-30T03:00:10.242Z,96469.99
2019-01-30T03:02:57.783Z,96468.38
2019-01-30T03:05:45.192Z,96469.34
2019-01-30T03:08:32.411Z,96472.27
2019-01-30T03:11:19.598Z,96471.89
2019-01-30T03:14:06.951Z,96477.68
2019-01-30T03:16:54.478Z,96466.90
2019-01-30T03:19:42.189Z,96467.47
2019-01-30T03:22:29.652Z,96460.38
2019-01-30T03:27:52.597Z,96453.50
2019-01-30T03:30:39.923Z,96453.51
2019-01-30T03:33:27.557Z,96451.40
2019-01-30T03:36:15.080Z,96450.73
2019-01-30T03:39:04.586Z,96447.47
2019-01-30T03:41:52.041Z,96443.95
2019-01-30T03:44:39.270Z,96436.98
2019-01-30T03:47:26.137Z,96436.19
2019-01-30T03:50:14.691Z,96433.33
2019-01-30T03:53:01.934Z,96428.02
2019-01-30T03:55:48.889Z,96425.00
2019-01-30T03:58:36.929Z,96418.86
2019-01-30T04:01:26.652Z,96412.75
2019-01-30T04:04:13.720Z,96406.91
2019-01-30T04:07:00.841Z,96403.05
2019-01-30T04:09:48.165Z,96401.13
2019-01-30T04:12:35.126Z,96401.10
2019-01-30T04:15:22.367Z,96408.39
2019-01-30T04:18:10.024Z,96400.50
2019-01-30T04:20:57.854Z,96396.30
2019-01-30T04:23:46.203Z,96392.68
2019-01-30T04:26:34.033Z,96393.06
2019-01-30T04:29:21.460Z,96390.68
2019-01-30T04:32:08.716Z,96389.23
2019-01-30T04:34:56.109Z,96382.38
2019-01-30T04:37:43.619Z,96384.20
2019-01-30T04:40:31.409Z,96377.77
2019-01-30T04:43:18.575Z,96369.74
2019-01-30T04:46:06.206Z,96365.87
2019-01-30T04:48:53.641Z,96365.09
2019-01-30T04:51:41.563Z,96361.70
2019-01-30T04:54:29.192Z,96357.78
2019-01-30T04:57:17.050Z,96360.64
2019-01-30T05:00:07.425Z,96353.52
2019-01-30T05:02:55.567Z,96355.23
2019-01-30T05:05:43.094Z,96354.55
2019-01-30T05:08:30.614Z,96345.94
2019-01-30T05:11:17.659Z,96337.35
2019-01-30T05:14:05.973Z,96347.98
2019-01-30T05:16:53.398Z,96346.20
2019-01-30T05:19:40.812Z,96337.11
2019-01-30T05:22:28.454Z,96338.11
2019-01-30T05:25:16.726Z,96329.52
2019-01-30T05:28:03.780Z,96333.39
2019-01-30T05:30:50.898Z,96329.27
2019-01-30T05:33:38.504Z,96332.00
2019-01-30T05:36:28.437Z,96331.39
2019-01-30T05:39:15.657Z,96332.95
2019-01-30T05:42:02.878Z,96337.16
2019-01-30T05:44:50.744Z,96323.48
2019-01-30T05:47:38.133Z,96317.29
2019-01-30T05:50:25.558Z,96314.97
2019-01-30T05:53:13.020Z,96320.34
2019-01-30T05:56:00.272Z,96312.41
2019-01-30T05:58:47.529Z,96301.30
2019-01-30T06:01:35.356Z,96304.81
2019-01-30T06:04:22.675Z,96305.49
2019-01-30T06:07:10.107Z,96306.30
2019-01-30T06:09:57.833Z,96316.34
2019-01-30T06:12:45.464Z,96318.99
2019-01-30T06:15:32.461Z,96327.05
2019-01-30T06:18:19.696Z,96325.25
2019-01-30T06:21:07.225Z,96321.88
2019-01-30T06:23:55.052Z,96322.89
2019-01-30T06:26:43.015Z,96324.69
2019-01-30T06:29:30.823Z,96324.51
2019-01-30T06:32:21.824Z,96329.80
2019-01-30T06:35:07.206Z,96333.05
2019-01-30T06:37:54.456Z,96326.58
2019-01-30T06:40:41.888Z,96333.20
2019-01-30T06:43:29.274Z,96338.03
2019-01-30T06:46:17.131Z,96333.11
2019-01-30T06:49:04.894Z,96328.75
2019-01-30T06:51:52.260Z,96323.89
2019-01-30T06:54:41.103Z,96323.24
2019-01-30T06:57:28.748Z,96318.06
2019-01-30T07:00:20.934Z,96322.88
2019-01-30T07:03:08.186Z,96329.02
2019-01-30T07:05:55.632Z,96315.11
2019-01-30T07:08:43.260Z,96312.85
2019-01-30T07:11:30.423Z,96305.48
2019-01-30T07:14:17.285Z,96295.59
2019-01-30T07:17:04.608Z,96301.80
2019-01-30T07:19:52.540Z,96298.00
2019-01-30T07:22:40.066Z,96297.05
2019-01-30T07:25:27.302Z,96289.80
2019-01-30T07:28:14.615Z,96290.39
2019-01-30T07:31:01.825Z,96282.79
2019-01-30T07:33:49.261Z,96278.23
2019-01-30T07:36:36.781Z,96274.92
2019-01-30T07:39:24.099Z,96273.86
2019-01-30T07:42:11.217Z,96280.16
2019-01-30T07:44:58.844Z,96272.46
2019-01-30T07:47:51.082Z,96264.53
2019-01-30T07:50:40.144Z,96279.36
2019-01-30T07:53:27.363Z,96292.87
2019-01-30T07:56:14.890Z,96282.19
2019-01-30T07:59:02.421Z,96278.66
2019-01-30T08:01:50.250Z,96280.42
2019-01-30T08:04:37.777Z,96282.64
2019-01-30T08:07:27.699Z,96286.90
2019-01-30T08:10:15.848Z,96291.81
2019-01-30T08:13:03.328Z,96288.98
2019-01-30T08:15:51.365Z,96305.13
2019-01-30T08:18:45.136Z,96308.67
2019-01-30T08:21:32.971Z,96303.52
2019-01-30T08:24:20.365Z,96295.33
2019-01-30T08:27:08.539Z,96289.30
2019-01-30T08:29:55.770Z,96289.58
2019-01-30T08:32:43.059Z,96282.75
2019-01-30T08:35:31.523Z,96291.81
2019-01-30T08:38:18.742Z,96291.35
2019-01-30T08:41:06.258Z,96294.48
2019-01-30T08:43:54.823Z,96284.42
2019-01-30T08:46:41.935Z,96292.55
2019-01-30T08:49:29.665Z,96288.83
2019-01-30T08:52:17.605Z,96295.11
2019-01-30T08:55:07.908Z,96289.94
2019-01-30T08:57:55.418Z,96285.06
2019-01-30T09:00:42.642Z,96287.04
2019-01-30T09:03:30.572Z,96278.64
2019-01-30T09:06:17.948Z,96281.24
2019-01-30T09:09:08.328Z,96294.31
2019-01-30T09:11:57.700Z,96278.30
2019-01-30T09:14:44.674Z,96274.45
2019-01-30T09:17:31.797Z,96268.10
2019-01-30T09:20:22.115Z,96275.08
2019-01-30T09:23:10.833Z,96272.01
2019-01-30T09:25:57.750Z,96265.33
2019-01-30T09:28:45.182Z,96266.56
2019-01-30T09:31:32.597Z,96268.39
2019-01-30T09:34:20.264Z,96275.20
2019-01-30T09:37:07.852Z,96278.83
2019-01-30T09:39:55.093Z,96281.28
2019-01-30T09:42:42.651Z,96285.67
2019-01-30T09:45:30.156Z,96284.94
2019-01-30T09:48:17.614Z,96279.92
2019-01-30T09:51:05.379Z,96285.55
2019-01-30T09:53:53.009Z,96279.70
2019-01-30T09:56:40.449Z,96280.99
2019-01-30T09:59:32.677Z,96273.16
2019-01-30T10:02:20.403Z,96283.14
2019-01-30T10:05:11.312Z,96270.69
2019-01-30T10:07:58.732Z,96265.99
2019-01-30T10:10:46.309Z,96268.58
2019-01-30T10:13:34.016Z,96263.63
2019-01-30T10:16:21.411Z,96259.75
2019-01-30T10:19:08.632Z,96260.31
2019-01-30T10:21:56.463Z,96096.92
2019-01-30T10:24:43.991Z,96261.28
2019-01-30T10:27:31.521Z,96258.55
2019-01-30T10:30:21.960Z,96254.44
2019-01-30T10:33:09.438Z,96253.09
2019-01-30T10:35:56.862Z,96256.25
2019-01-30T10:38:44.388Z,96254.14
2019-01-30T10:41:31.913Z,96247.91
2019-01-30T10:44:19.573Z,96243.04
2019-01-30T10:47:07.070Z,96249.48
2019-01-30T10:49:54.903Z,96243.89
2019-01-30T10:52:42.078Z,96244.34
2019-01-30T10:55:31.976Z,96272.22
2019-01-30T10:58:20.144Z,96238.34
2019-01-30T11:01:07.269Z,96236.58
2019-01-30T11:03:57.499Z,96233.75
2019-01-30T11:06:43.645Z,96235.25
2019-01-30T11:09:31.068Z,96224.67
2019-01-30T11:12:18.850Z,96224.31
2019-01-30T11:15:12.573Z,96215.64
2019-01-30T11:18:00.664Z,96216.30
2019-01-30T11:20:47.834Z,96207.72
2019-01-30T11:23:35.558Z,96208.05
2019-01-30T11:26:22.888Z,96211.80
2019-01-30T11:29:10.515Z,96199.83
2019-01-30T11:31:58.039Z,96201.34
2019-01-30T11:34:45.324Z,96189.08
2019-01-30T11:37:32.989Z,96196.47
2019-01-30T11:40:22.224Z,96193.27
2019-01-30T11:43:09.679Z,96192.11
2019-01-30T11:45:57.204Z,96201.65
2019-01-30T11:48:44.626Z,96203.66
2019-01-30T11:51:32.050Z,96196.70
2019-01-30T11:54:19.680Z,96199.48
2019-01-30T11:57:07.513Z,96194.84
2019-01-30T11:59:54.947Z,96195.95
2019-01-30T12:02:47.959Z,96194.72
2019-01-30T12:05:31.216Z,96197.50
2019-01-30T12:08:19.051Z,96190.25
2019-01-30T12:11:06.886Z,96180.64
2019-01-30T12:13:54.414Z,96172.72
2019-01-30T12:16:42.553Z,96177.16
2019-01-30T12:19:30.084Z,96168.65
2019-01-30T12:22:17.502Z,96173.11
2019-01-30T12:25:08.110Z,96177.92
2019-01-30T12:27:55.846Z,96186.38
2019-01-30T12:30:43.155Z,96179.05
2019-01-30T12:33:30.582Z,96186.62
2019-01-30T12:36:17.909Z,96180.15
2019-01-30T12:39:09.371Z,96181.65
2019-01-30T12:41:57.166Z,96175.64
2019-01-30T12:44:44.269Z,96175.65
2019-01-30T12:47:31.588Z,96163.23
2019-01-30T12:50:19.218Z,96158.83
2019-01-30T12:53:06.540Z,96163.26
2019-01-30T12:55:54.275Z,96168.42
2019-01-30T12:58:42.107Z,96170.26
2019-01-30T13:01:31.024Z,96164.26
2019-01-30T13:04:18.793Z,96168.05
2019-01-30T13:07:05.809Z,96168.45
2019-01-30T13:09:53.236Z,96170.97
2019-01-30T13:12:40.296Z,96172.00
2019-01-30T13:15:29.897Z,96165.33
2019-01-30T13:18:18.666Z,96164.20
2019-01-30T13:21:06.104Z,96167.98
2019-01-30T13:23:53.631Z,96169.83
2019-01-30T13:26:41.178Z,96167.98
2019-01-30T13:29:28.482Z,96174.48
2019-01-30T13:32:15.696Z,96171.94
2019-01-30T13:35:03.226Z,96171.83
2019-01-30T13:37:50.341Z,96175.14
2019-01-30T13:40:38.617Z,96174.06
2019-01-30T13:43:26.138Z,96176.45
2019-01-30T13:46:13.642Z,96177.69
2019-01-30T13:49:00.780Z,96174.33
2019-01-30T13:51:48.485Z,96174.77
2019-01-30T13:54:35.512Z,96170.55
2019-01-30T13:57:22.518Z,96182.95
2019-01-30T14:00:15.883Z,96178.24
2019-01-30T14:03:03.198Z,96169.89
2019-01-30T14:05:50.858Z,96179.69
2019-01-30T14:08:38.185Z,96183.21
2019-01-30T14:11:25.797Z,96172.72
2019-01-30T14:14:13.536Z,96174.48
2019-01-30T14:17:00.396Z,96168.80
2019-01-30T14:19:48.004Z,96178.06
2019-01-30T14:22:35.471Z,96167.84
2019-01-30T14:25:23.547Z,96167.41
2019-01-30T14:28:10.833Z,96167.61
2019-01-30T14:30:58.165Z,96170.04
2019-01-30T14:33:45.942Z,96173.80
2019-01-30T14:36:33.313Z,96175.49
2019-01-30T14:39:20.643Z,96172.42
2019-01-30T14:42:08.062Z,96176.16
2019-01-30T14:44:55.272Z,96174.09
2019-01-30T14:47:42.392Z,96172.65
2019-01-30T14:50:30.072Z,96170.80
2019-01-30T14:53:17.551Z,96172.77
2019-01-30T14:56:05.893Z,96183.33
2019-01-30T14:58:55.319Z,96177.72
2019-01-30T15:01:41.896Z,96176.77
2019-01-30T15:04:29.088Z,96177.11
2019-01-30T15:07:16.186Z,96167.84
2019-01-30T15:10:04.855Z,96172.56
2019-01-30T15:12:53.391Z,96173.97
2019-01-30T15:15:40.945Z,96173.16
2019-01-30T15:18:28.497Z,96165.00
2019-01-30T15:21:15.512Z,96170.31
2019-01-30T15:24:03.205Z,96164.84
2019-01-30T15:26:50.858Z,96164.67
2019-01-30T15:29:37.845Z,96170.00
2019-01-30T15:32:25.221Z,96173.29
2019-01-30T15:35:12.846Z,96169.03
2019-01-30T15:38:01.329Z,96171.69
2019-01-30T15:40:49.080Z,96168.14
2019-01-30T15:43:36.305Z,96161.08
2019-01-30T15:46:23.814Z,96161.61
2019-01-30T15:49:11.171Z,96167.44
2019-01-30T15:51:58.270Z,96162.20
2019-01-30T15:54:45.483Z,96171.07
2019-01-30T15:57:32.558Z,96176.77
2019-01-30T16:00:29.476Z,96178.24
2019-01-30T16:03:16.999Z,96169.83
2019-01-30T16:06:04.843Z,96175.46
2019-01-30T16:08:52.121Z,96170.75
2019-01-30T16:11:39.547Z,96167.16
2019-01-30T16:14:27.079Z,96168.95
2019-01-30T16:17:14.700Z,96175.13
2019-01-30T16:20:02.331Z,96166.09
2019-01-30T16:22:49.549Z,96169.95
2019-01-30T16:25:36.869Z,96171.06
2019-01-30T16:28:23.969Z,96169.06
2019-01-30T16:31:11.511Z,96168.63
2019-01-30T16:33:58.633Z,96175.00
2019-01-30T16:36:46.159Z,96178.52
2019-01-30T16:39:33.269Z,96171.77
2019-01-30T16:42:21.005Z,96182.94
2019-01-30T16:45:17.219Z,96180.31
2019-01-30T16:48:05.630Z,96185.80
2019-01-30T16:50:52.801Z,96187.04
2019-01-30T16:53:40.337Z,96193.40
2019-01-30T16:56:27.638Z,96195.77
2019-01-30T16:59:15.488Z,96188.39
2019-01-30T17:02:03.011Z,96200.88
2019-01-30T17:04:50.430Z,96198.98
2019-01-30T17:07:38.061Z,96200.29
2019-01-30T17:10:25.181Z,96199.53
2019-01-30T17:13:12.978Z,96190.44
2019-01-30T17:16:00.126Z,96196.07
2019-01-30T17:18:47.558Z,96197.89
2019-01-30T17:21:35.076Z,96196.46
2019-01-30T17:24:22.499Z,96194.90
2019-01-30T17:27:09.518Z,96199.48
2019-01-30T17:29:57.043Z,96197.19
2019-01-30T17:32:44.510Z,96201.91
2019-01-30T17:35:31.926Z,96199.53
2019-01-30T17:38:19.416Z,96204.81
2019-01-30T17:41:07.174Z,96208.70
2019-01-30T17:43:54.930Z,96206.19
2019-01-30T17:46:42.509Z,96211.89
2019-01-30T17:49:30.147Z,96217.04
2019-01-30T17:52:17.560Z,96210.03
2019-01-30T17:55:07.090Z,96212.77
2019-01-30T17:57:54.312Z,96212.33
2019-01-30T18:00:46.696Z,96211.31
2019-01-30T18:03:34.221Z,96208.02
2019-01-30T18:06:29.477Z,96208.20
2019-01-30T18:09:10.680Z,96205.77
2019-01-30T18:11:58.555Z,96203.20
2019-01-30T18:14:45.654Z,96204.39
2019-01-30T18:17:33.284Z,96207.68
2019-01-30T18:20:22.348Z,96218.98
2019-01-30T18:23:10.084Z,96206.25
2019-01-30T18:25:57.399Z,96201.02
2019-01-30T18:28:44.726Z,96200.63
2019-01-30T18:31:32.553Z,96201.38
2019-01-30T18:34:20.390Z,96205.09
2019-01-30T18:37:07.817Z,96202.38
2019-01-30T18:39:55.238Z,96212.62
2019-01-30T18:42:42.560Z,96208.77
2019-01-30T18:45:29.886Z,96211.58
2019-01-30T18:48:18.471Z,96217.84
2019-01-30T18:51:05.958Z,96217.55
2019-01-30T18:53:53.406Z,96233.30
2019-01-30T18:56:41.343Z,96230.63
2019-01-30T18:59:28.852Z,96227.86
2019-01-30T19:02:16.372Z,96235.91
2019-01-30T19:05:04.940Z,96238.97
2019-01-30T19:07:52.551Z,96242.61
2019-01-30T19:10:39.963Z,96249.39
2019-01-30T19:13:27.196Z,96247.99
2019-01-30T19:16:15.025Z,96241.50
2019-01-30T19:19:02.151Z,96248.20
2019-01-30T19:21:49.874Z,96238.34
2019-01-30T19:24:37.293Z,96246.93
2019-01-30T19:27:24.821Z,96250.95
2019-01-30T19:30:15.522Z,96258.36
2019-01-30T19:33:03.354Z,96248.55
2019-01-30T19:35:52.293Z,96253.64
2019-01-30T19:38:39.307Z,96260.30
2019-01-30T19:41:27.369Z,96256.05
2019-01-30T19:44:14.533Z,96261.42
2019-01-30T19:47:02.015Z,96255.95
2019-01-30T19:49:49.745Z,96267.13
2019-01-30T19:52:37.481Z,96275.24
2019-01-30T19:55:25.512Z,96271.11
2019-01-30T19:58:12.734Z,96271.58
2019-01-30T20:01:00.161Z,96273.04
2019-01-30T20:03:47.690Z,96284.30
2019-01-30T20:06:35.370Z,96295.27
2019-01-30T20:09:24.093Z,96282.48
2019-01-30T20:12:11.490Z,96287.19
2019-01-30T20:14:59.120Z,96300.96
2019-01-30T20:17:46.336Z,96300.42
2019-01-30T20:20:33.866Z,96303.05
2019-01-30T20:23:20.780Z,96305.94
2019-01-30T20:26:08.095Z,96311.16
2019-01-30T20:28:55.321Z,96313.67
2019-01-30T20:31:42.773Z,96317.77
2019-01-30T20:34:30.087Z,96324.17
2019-01-30T20:37:25.941Z,96336.86
2019-01-30T20:40:09.620Z,96333.18
2019-01-30T20:42:57.970Z,96337.15
2019-01-30T20:45:45.492Z,96339.27
2019-01-30T20:48:32.628Z,96345.75
2019-01-30T20:51:20.037Z,96362.50
2019-01-30T20:54:07.562Z,96361.53
2019-01-30T20:56:54.573Z,96367.20
2019-01-30T20:59:43.329Z,96372.50
2019-01-30T21:02:30.853Z,96374.95
2019-01-30T21:05:18.176Z,96372.52
2019-01-30T21:08:06.011Z,96372.67
2019-01-30T21:10:52.863Z,96370.50
2019-01-30T21:13:40.178Z,96394.31
2019-01-30T21:16:27.266Z,96392.28
2019-01-30T21:19:16.324Z,96389.66
2019-01-30T21:22:04.255Z,96387.72
2019-01-30T21:24:54.243Z,96393.32
2019-01-30T21:27:41.665Z,96398.88
2019-01-30T21:30:31.550Z,96399.39
2019-01-30T21:33:18.970Z,96407.05
2019-01-30T21:36:06.598Z,96403.25
2019-01-30T21:38:54.125Z,96406.23
2019-01-30T21:41:43.069Z,96411.45
2019-01-30T21:44:30.406Z,96415.88
2019-01-30T21:47:17.830Z,96416.59
2019-01-30T21:50:07.697Z,96412.20
2019-01-30T21:52:55.852Z,96420.56
2019-01-30T21:55:43.077Z,96421.02
2019-01-30T21:58:30.178Z,96420.02
2019-01-30T22:01:20.706Z,96435.02
2019-01-30T22:04:07.189Z,96440.39
2019-01-30T22:06:54.464Z,96446.88
2019-01-30T22:09:41.618Z,96452.53
2019-01-30T22:12:28.740Z,96456.40
2019-01-30T22:15:17.152Z,96460.01
2019-01-30T22:18:04.818Z,96464.21
2019-01-30T22:20:52.345Z,96464.69
2019-01-30T22:23:39.874Z,96464.89
2019-01-30T22:26:27.194Z,96464.54
2019-01-30T22:29:14.620Z,96467.56
2019-01-30T22:32:02.041Z,96461.37
2019-01-30T22:34:49.361Z,96469.66
2019-01-30T22:37:36.478Z,96462.91
2019-01-30T22:40:24.376Z,96468.81
2019-01-30T22:43:11.852Z,96471.87
2019-01-30T22:45:59.268Z,96472.20
2019-01-30T22:48:47.007Z,96475.53
2019-01-30T22:51:34.522Z,96478.02
2019-01-30T22:54:22.161Z,96472.13
2019-01-30T22:57:09.781Z,96477.70
2019-01-30T22:59:57.414Z,96476.12
2019-01-30T23:02:44.743Z,96479.94
2019-01-30T23:05:46.793Z,96473.03
2019-01-30T23:08:35.933Z,96478.75
2019-01-30T23:11:44.441Z,96481.78
2019-01-30T23:14:33.440Z,96482.11
2019-01-30T23:17:26.365Z,96472.08
2019-01-30T23:20:36.241Z,96478.78
2019-01-30T23:23:32.472Z,96478.55
2019-01-30T23:26:22.770Z,96467.59
2019-01-30T23:29:27.875Z,96476.03
2019-01-30T23:32:18.089Z,96473.05
2019-01-30T23:35:23.332Z,96479.45
2019-01-30T23:38:16.429Z,96475.15
2019-01-30T23:41:30.947Z,96480.75
2019-01-30T23:44:30.761Z,96477.33
2019-01-30T23:47:34.057Z,96480.23
2019-01-30T23:50:51.412Z,96480.25
2019-01-30T23:53:49.916Z,96483.27
2019-01-30T23:56:48.867Z,96476.25
2019-01-30T23:59:42.020Z,96478.47
